createdAt,value
2017-11-29T00:00:19.911Z,22.23
2017-11-29T00:01:22.384Z,20.87
2017-11-29T00:02:25.756Z,14.37
2017-11-29T00:03:28.286Z,23.67
2017-11-29T00:04:30.766Z,19.67
2017-11-29T00:05:33.233Z,27.07
2017-11-29T00:06:35.716Z,23.40
2017-11-29T00:07:38.181Z,15.80
2017-11-29T00:08:40.644Z,18.03
2017-11-29T00:09:43.116Z,26.13
2017-11-29T00:10:45.589Z,21.93
2017-11-29T00:11:48.081Z,24.33
2017-11-29T00:12:50.566Z,17.83
2017-11-29T00:13:53.032Z,12.53
2017-11-29T00:14:55.513Z,20.47
2017-11-29T00:15:57.981Z,19.80
2017-11-29T00:17:00.458Z,23.20
2017-11-29T00:18:02.920Z,31.70
2017-11-29T00:19:05.397Z,30.70
2017-11-29T00:20:07.864Z,20.07
2017-11-29T00:21:10.328Z,13.77
2017-11-29T00:22:12.793Z,22.30
2017-11-29T00:23:15.265Z,15.63
2017-11-29T00:24:17.728Z,14.47
2017-11-29T00:25:20.189Z,17.03
2017-11-29T00:26:22.648Z,16.13
2017-11-29T00:27:25.114Z,25.37
2017-11-29T00:28:27.631Z,15.60
2017-11-29T00:29:30.077Z,15.90
2017-11-29T00:30:32.558Z,19.63
2017-11-29T00:31:35.034Z,24.37
2017-11-29T00:32:37.491Z,14.03
2017-11-29T00:33:39.969Z,16.90
2017-11-29T00:34:42.448Z,15.47
2017-11-29T00:35:44.956Z,16.93
2017-11-29T00:36:47.416Z,13.30
2017-11-29T00:37:49.893Z,22.97
2017-11-29T00:38:52.380Z,23.93
2017-11-29T00:39:54.851Z,19.07
2017-11-29T00:40:57.339Z,14.83
2017-11-29T00:41:59.821Z,16.60
2017-11-29T00:43:02.301Z,13.97
2017-11-29T00:44:04.794Z,14.23
2017-11-29T00:45:07.271Z,19.80
2017-11-29T00:46:09.756Z,23.53
2017-11-29T00:47:12.238Z,15.83
2017-11-29T00:48:14.696Z,18.13
2017-11-29T00:49:17.161Z,13.53
2017-11-29T00:50:19.624Z,19.93
2017-11-29T00:51:22.088Z,16.00
2017-11-29T00:52:24.567Z,17.50
2017-11-29T00:53:27.042Z,13.87
2017-11-29T00:54:29.514Z,18.23
2017-11-29T00:55:31.989Z,15.80
2017-11-29T00:56:34.448Z,16.80
2017-11-29T00:57:36.927Z,23.87
2017-11-29T00:58:39.388Z,15.97
2017-11-29T00:59:41.848Z,15.63
2017-11-29T01:00:44.326Z,19.07
2017-11-29T01:01:46.799Z,13.87
2017-11-29T01:02:49.407Z,17.03
2017-11-29T01:03:51.902Z,16.90
2017-11-29T01:04:54.409Z,13.30
2017-11-29T01:05:56.981Z,13.77
2017-11-29T01:06:59.604Z,16.47
2017-11-29T01:08:02.077Z,17.13
2017-11-29T01:09:04.545Z,14.37
2017-11-29T01:10:07.083Z,13.67
2017-11-29T01:11:09.556Z,16.10
2017-11-29T01:12:12.034Z,13.37
2017-11-29T01:13:14.541Z,12.67
2017-11-29T01:14:17.020Z,11.60
2017-11-29T01:15:19.494Z,9.60
2017-11-29T01:16:21.972Z,17.50
2017-11-29T01:17:24.432Z,10.33
2017-11-29T01:18:26.891Z,13.23
2017-11-29T01:19:29.420Z,20.10
2017-11-29T01:20:31.904Z,13.33
2017-11-29T01:21:34.390Z,13.53
2017-11-29T01:22:36.874Z,14.60
2017-11-29T01:23:39.354Z,12.60
2017-11-29T01:24:41.842Z,12.70
2017-11-29T01:25:44.312Z,12.07
2017-11-29T01:26:46.767Z,10.73
2017-11-29T01:27:49.237Z,14.37
2017-11-29T01:28:51.700Z,8.83
2017-11-29T01:29:54.160Z,13.17
2017-11-29T01:30:56.645Z,8.63
2017-11-29T01:31:59.132Z,12.33
2017-11-29T01:33:01.629Z,12.53
2017-11-29T01:34:04.087Z,10.60
2017-11-29T01:35:06.543Z,15.33
2017-11-29T01:36:08.991Z,9.73
2017-11-29T01:37:11.465Z,9.20
2017-11-29T01:38:13.946Z,11.17
2017-11-29T01:39:16.419Z,15.33
2017-11-29T01:40:18.895Z,9.63
2017-11-29T01:41:21.352Z,18.63
2017-11-29T01:42:23.822Z,11.47
2017-11-29T01:43:26.288Z,11.37
2017-11-29T01:44:28.748Z,16.27
2017-11-29T01:45:31.226Z,13.73
2017-11-29T01:46:33.712Z,10.97
2017-11-29T01:47:36.191Z,12.87
2017-11-29T01:48:38.652Z,13.30
2017-11-29T01:49:41.113Z,14.77
2017-11-29T01:50:43.586Z,14.27
2017-11-29T01:51:46.071Z,12.07
2017-11-29T01:52:48.539Z,10.93
2017-11-29T01:53:51.018Z,14.30
2017-11-29T01:54:53.499Z,12.20
2017-11-29T01:55:55.964Z,18.47
2017-11-29T01:56:58.421Z,14.50
2017-11-29T01:58:00.902Z,16.50
2017-11-29T01:59:03.364Z,13.47
2017-11-29T02:00:05.844Z,12.63
2017-11-29T02:01:08.312Z,22.63
2017-11-29T02:02:10.771Z,14.40
2017-11-29T02:03:13.228Z,20.60
2017-11-29T02:04:15.705Z,19.33
2017-11-29T02:05:17.472Z,11.90
2017-11-29T02:06:26.854Z,9.23
2017-11-29T02:07:29.319Z,14.87
2017-11-29T02:08:31.783Z,22.07
2017-11-29T02:09:34.270Z,13.73
2017-11-29T02:10:36.763Z,13.97
2017-11-29T02:11:39.225Z,15.57
2017-11-29T02:12:41.714Z,18.50
2017-11-29T02:13:44.185Z,11.33
2017-11-29T02:14:46.643Z,19.70
2017-11-29T02:15:49.103Z,5.67
2017-11-29T02:16:51.582Z,11.57
2017-11-29T02:17:54.059Z,12.03
2017-11-29T02:18:56.538Z,10.00
2017-11-29T02:19:59.019Z,11.70
2017-11-29T02:21:01.506Z,14.50
2017-11-29T02:22:03.964Z,11.03
2017-11-29T02:23:06.436Z,12.27
2017-11-29T02:24:08.903Z,16.63
2017-11-29T02:25:11.380Z,11.00
2017-11-29T02:26:13.858Z,20.50
2017-11-29T02:27:16.321Z,14.83
2017-11-29T02:28:18.786Z,10.20
2017-11-29T02:29:21.293Z,13.57
2017-11-29T02:30:23.774Z,27.87
2017-11-29T02:31:26.245Z,9.43
2017-11-29T02:32:28.738Z,13.43
2017-11-29T02:33:31.290Z,8.17
2017-11-29T02:34:33.785Z,13.77
2017-11-29T02:35:36.270Z,11.47
2017-11-29T02:36:38.759Z,11.33
2017-11-29T02:37:41.218Z,8.13
2017-11-29T02:38:43.704Z,13.90
2017-11-29T02:39:57.954Z,10.97
2017-11-29T02:41:12.180Z,7.57
2017-11-29T02:42:26.536Z,12.33
2017-11-29T02:43:29.042Z,13.60
2017-11-29T02:44:31.521Z,13.20
2017-11-29T02:45:34.011Z,10.17
2017-11-29T02:46:36.472Z,9.33
2017-11-29T02:47:38.943Z,7.30
2017-11-29T02:48:41.449Z,8.23
2017-11-29T02:49:43.934Z,12.37
2017-11-29T02:50:46.400Z,12.30
2017-11-29T02:51:48.868Z,8.80
2017-11-29T02:52:51.366Z,7.27
2017-11-29T02:53:53.846Z,7.77
2017-11-29T02:54:56.309Z,5.87
2017-11-29T02:55:58.795Z,13.77
2017-11-29T02:57:01.264Z,7.03
2017-11-29T02:58:03.738Z,10.47
2017-11-29T02:59:06.244Z,10.10
2017-11-29T03:00:08.700Z,7.13
2017-11-29T03:01:11.161Z,13.70
2017-11-29T03:02:13.624Z,10.60
2017-11-29T03:03:16.081Z,5.30
2017-11-29T03:04:18.561Z,6.13
2017-11-29T03:05:21.028Z,8.80
2017-11-29T03:06:23.519Z,7.90
2017-11-29T03:07:25.994Z,9.77
2017-11-29T03:08:28.452Z,7.50
2017-11-29T03:09:30.949Z,10.20
2017-11-29T03:10:33.413Z,9.77
2017-11-29T03:11:35.888Z,7.47
2017-11-29T03:12:38.357Z,11.97
2017-11-29T03:13:40.835Z,13.13
2017-11-29T03:14:43.355Z,12.30
2017-11-29T03:15:45.829Z,6.93
2017-11-29T03:16:48.288Z,7.10
2017-11-29T03:17:50.770Z,6.63
2017-11-29T03:18:53.228Z,7.30
2017-11-29T03:19:55.704Z,8.50
2017-11-29T03:20:58.173Z,9.07
2017-11-29T03:22:00.637Z,10.23
2017-11-29T03:23:03.103Z,11.17
2017-11-29T03:24:05.555Z,8.13
2017-11-29T03:25:08.047Z,5.83
2017-11-29T03:26:10.515Z,8.33
2017-11-29T03:27:12.991Z,8.23
2017-11-29T03:28:15.448Z,7.30
2017-11-29T03:29:17.923Z,8.60
2017-11-29T03:30:20.414Z,8.10
2017-11-29T03:31:22.912Z,5.77
2017-11-29T03:32:25.387Z,4.80
2017-11-29T03:33:27.853Z,11.60
2017-11-29T03:34:30.334Z,9.93
2017-11-29T03:35:32.825Z,9.97
2017-11-29T03:36:35.302Z,11.00
2017-11-29T03:37:37.771Z,7.87
2017-11-29T03:38:40.246Z,5.87
2017-11-29T03:39:42.722Z,6.47
2017-11-29T03:40:45.200Z,7.87
2017-11-29T03:41:47.679Z,9.67
2017-11-29T03:42:50.143Z,13.33
2017-11-29T03:43:52.608Z,11.40
2017-11-29T03:44:55.072Z,8.07
2017-11-29T03:45:57.567Z,9.50
2017-11-29T03:47:00.024Z,8.77
2017-11-29T03:48:02.502Z,8.23
2017-11-29T03:49:04.956Z,6.67
2017-11-29T03:50:07.426Z,5.13
2017-11-29T03:51:09.905Z,12.50
2017-11-29T03:52:12.368Z,10.33
2017-11-29T03:53:14.831Z,12.57
2017-11-29T03:54:17.368Z,8.23
2017-11-29T03:55:19.843Z,8.30
2017-11-29T03:56:22.332Z,7.97
2017-11-29T03:57:24.834Z,9.40
2017-11-29T03:58:27.320Z,8.50
2017-11-29T03:59:29.775Z,5.40
2017-11-29T04:00:32.240Z,7.30
2017-11-29T04:01:34.716Z,9.10
2017-11-29T04:02:37.172Z,21.43
2017-11-29T04:03:39.650Z,10.33
2017-11-29T04:04:42.108Z,9.27
2017-11-29T04:05:44.564Z,5.07
2017-11-29T04:06:47.048Z,6.70
2017-11-29T04:07:49.521Z,7.40
2017-11-29T04:08:52.185Z,12.03
2017-11-29T04:09:54.654Z,7.73
2017-11-29T04:10:57.108Z,5.20
2017-11-29T04:11:59.610Z,6.40
2017-11-29T04:13:02.064Z,6.40
2017-11-29T04:14:04.521Z,7.00
2017-11-29T04:15:06.998Z,5.80
2017-11-29T04:16:09.476Z,7.40
2017-11-29T04:17:11.981Z,6.83
2017-11-29T04:18:14.459Z,5.20
2017-11-29T04:19:16.951Z,7.57
2017-11-29T04:20:19.426Z,9.00
2017-11-29T04:21:21.913Z,8.03
2017-11-29T04:22:24.409Z,3.93
2017-11-29T04:23:26.867Z,8.90
2017-11-29T04:24:29.352Z,5.93
2017-11-29T04:25:31.829Z,6.77
2017-11-29T04:26:34.283Z,3.73
2017-11-29T04:27:36.763Z,10.10
2017-11-29T04:28:39.235Z,4.80
2017-11-29T04:29:41.704Z,5.47
2017-11-29T04:30:44.181Z,7.40
2017-11-29T04:31:46.649Z,4.30
2017-11-29T04:32:49.154Z,7.37
2017-11-29T04:33:51.627Z,7.40
2017-11-29T04:34:54.103Z,4.60
2017-11-29T04:35:56.577Z,6.20
2017-11-29T04:36:59.090Z,8.30
2017-11-29T04:38:01.578Z,4.50
2017-11-29T04:39:04.044Z,10.53
2017-11-29T04:40:06.519Z,6.03
2017-11-29T04:41:08.973Z,3.70
2017-11-29T04:42:11.444Z,5.93
2017-11-29T04:43:13.939Z,9.47
2017-11-29T04:44:16.418Z,4.20
2017-11-29T04:45:18.902Z,6.23
2017-11-29T04:46:21.369Z,4.60
2017-11-29T04:47:23.824Z,9.03
2017-11-29T04:48:26.324Z,6.83
2017-11-29T04:49:28.803Z,9.13
2017-11-29T04:50:31.269Z,8.43
2017-11-29T04:51:33.736Z,4.10
2017-11-29T04:52:36.215Z,12.70
2017-11-29T04:53:38.704Z,7.90
2017-11-29T04:54:41.179Z,5.07
2017-11-29T04:55:43.667Z,10.30
2017-11-29T04:56:46.131Z,4.70
2017-11-29T04:57:48.608Z,11.03
2017-11-29T04:58:51.097Z,17.70
2017-11-29T04:59:53.548Z,7.50
2017-11-29T05:00:56.023Z,5.63
2017-11-29T05:01:58.498Z,5.77
2017-11-29T05:03:00.996Z,7.60
2017-11-29T05:04:03.486Z,4.87
2017-11-29T05:05:05.950Z,7.57
2017-11-29T05:06:08.421Z,7.03
2017-11-29T05:07:10.931Z,4.77
2017-11-29T05:08:13.432Z,4.33
2017-11-29T05:09:15.915Z,4.57
2017-11-29T05:10:18.372Z,5.17
2017-11-29T05:11:20.847Z,12.53
2017-11-29T05:12:23.305Z,6.97
2017-11-29T05:13:25.776Z,10.27
2017-11-29T05:14:28.247Z,6.80
2017-11-29T05:15:30.703Z,3.30
2017-11-29T05:16:33.174Z,6.10
2017-11-29T05:17:35.646Z,7.03
2017-11-29T05:18:38.118Z,4.13
2017-11-29T05:19:40.599Z,6.00
2017-11-29T05:20:43.076Z,6.10
2017-11-29T05:21:45.546Z,6.03
2017-11-29T05:22:48.005Z,6.97
2017-11-29T05:23:50.460Z,5.73
2017-11-29T05:24:52.950Z,7.90
2017-11-29T05:25:55.437Z,6.70
2017-11-29T05:26:57.896Z,4.10
2017-11-29T05:28:00.354Z,5.80
2017-11-29T05:29:02.821Z,5.83
2017-11-29T05:30:05.296Z,4.60
2017-11-29T05:31:07.771Z,5.80
2017-11-29T05:32:10.242Z,5.40
2017-11-29T05:33:12.700Z,4.37
2017-11-29T05:34:15.156Z,4.43
2017-11-29T05:35:17.628Z,4.03
2017-11-29T05:36:20.147Z,4.50
2017-11-29T05:37:22.612Z,5.20
2017-11-29T05:38:25.090Z,4.40
2017-11-29T05:39:27.565Z,6.50
2017-11-29T05:40:30.053Z,5.33
2017-11-29T05:41:32.514Z,7.80
2017-11-29T05:42:34.991Z,3.67
2017-11-29T05:43:37.466Z,6.37
2017-11-29T05:44:39.939Z,7.78
2017-11-29T05:45:42.432Z,3.63
2017-11-29T05:46:44.902Z,5.50
2017-11-29T05:47:47.385Z,6.37
2017-11-29T05:48:49.843Z,6.53
2017-11-29T05:49:52.299Z,7.57
2017-11-29T05:50:54.773Z,11.57
2017-11-29T05:51:57.231Z,12.80
2017-11-29T05:52:59.698Z,4.20
2017-11-29T05:54:02.161Z,26.07
2017-11-29T05:55:04.620Z,8.13
2017-11-29T05:56:07.083Z,4.73
2017-11-29T05:57:09.557Z,5.90
2017-11-29T05:58:12.025Z,3.10
2017-11-29T05:59:14.484Z,3.30
2017-11-29T06:00:16.960Z,4.03
2017-11-29T06:01:19.437Z,7.03
2017-11-29T06:02:21.914Z,9.63
2017-11-29T06:03:24.380Z,5.67
2017-11-29T06:04:26.849Z,9.77
2017-11-29T06:05:29.308Z,6.03
2017-11-29T06:06:31.779Z,8.23
2017-11-29T06:07:34.250Z,10.43
2017-11-29T06:08:36.718Z,11.87
2017-11-29T06:09:39.191Z,9.00
2017-11-29T06:10:41.662Z,9.53
2017-11-29T06:11:44.136Z,9.95
2017-11-29T06:12:46.610Z,18.73
2017-11-29T06:13:49.068Z,16.43
2017-11-29T06:14:51.593Z,16.17
2017-11-29T06:15:53.355Z,7.77
2017-11-29T06:16:55.826Z,5.97
2017-11-29T06:17:58.310Z,11.43
2017-11-29T06:19:00.799Z,8.10
2017-11-29T06:20:03.277Z,10.40
2017-11-29T06:21:05.755Z,15.20
2017-11-29T06:22:08.251Z,9.70
2017-11-29T06:23:10.737Z,13.53
2017-11-29T06:24:13.217Z,10.83
2017-11-29T06:25:15.748Z,11.00
2017-11-29T06:26:18.246Z,13.33
2017-11-29T06:27:20.746Z,13.30
2017-11-29T06:28:23.235Z,12.60
2017-11-29T06:29:25.729Z,34.33
2017-11-29T06:30:28.210Z,49.47
2017-11-29T06:31:30.679Z,50.87
2017-11-29T06:32:33.196Z,30.03
2017-11-29T06:33:35.685Z,42.10
2017-11-29T06:34:38.174Z,31.30
2017-11-29T06:35:40.644Z,82.33
2017-11-29T06:36:43.136Z,72.20
2017-11-29T06:37:45.612Z,92.07
2017-11-29T06:38:48.096Z,98.33
2017-11-29T06:39:50.570Z,86.50
2017-11-29T06:40:53.059Z,96.10
2017-11-29T06:41:55.537Z,96.83
2017-11-29T06:42:58.022Z,105.30
2017-11-29T06:44:00.501Z,123.43
2017-11-29T06:45:02.986Z,116.40
2017-11-29T06:46:05.471Z,117.50
2017-11-29T06:47:07.955Z,124.53
2017-11-29T06:48:10.437Z,122.43
2017-11-29T06:49:12.934Z,132.60
2017-11-29T06:50:15.401Z,131.23
2017-11-29T06:51:17.869Z,129.63
2017-11-29T06:52:20.383Z,135.77
2017-11-29T06:53:22.879Z,128.52
2017-11-29T06:54:25.354Z,130.87
2017-11-29T06:55:27.836Z,135.80
2017-11-29T06:56:30.300Z,134.10
2017-11-29T06:57:32.799Z,135.23
2017-11-29T06:58:35.306Z,137.53
2017-11-29T06:59:37.916Z,126.80
2017-11-29T07:00:40.554Z,118.93
2017-11-29T07:01:43.044Z,123.80
2017-11-29T07:02:45.539Z,124.37
2017-11-29T07:03:48.045Z,119.60
2017-11-29T07:04:50.530Z,131.90
2017-11-29T07:05:53.019Z,122.33
2017-11-29T07:06:55.489Z,122.57
2017-11-29T07:07:58.026Z,126.53
2017-11-29T07:09:00.517Z,117.43
2017-11-29T07:10:02.984Z,118.73
2017-11-29T07:11:05.448Z,111.80
2017-11-29T07:12:07.939Z,120.13
2017-11-29T07:13:10.441Z,117.90
2017-11-29T07:14:12.938Z,111.00
2017-11-29T07:15:15.598Z,120.37
2017-11-29T07:16:18.126Z,129.73
2017-11-29T07:17:20.614Z,112.40
2017-11-29T07:18:23.108Z,107.57
2017-11-29T07:19:25.598Z,107.50
2017-11-29T07:20:28.086Z,114.17
2017-11-29T07:21:30.571Z,104.80
2017-11-29T07:22:33.114Z,106.33
2017-11-29T07:23:35.632Z,109.90
2017-11-29T07:24:38.122Z,107.17
2017-11-29T07:25:40.607Z,109.17
2017-11-29T07:26:43.093Z,113.47
2017-11-29T07:27:45.560Z,112.83
2017-11-29T07:28:48.048Z,108.60
2017-11-29T07:29:50.520Z,109.77
2017-11-29T07:30:53.067Z,111.23
2017-11-29T07:31:55.545Z,119.77
2017-11-29T07:32:58.017Z,106.73
2017-11-29T07:34:00.522Z,104.43
2017-11-29T07:35:02.996Z,103.17
2017-11-29T07:36:05.465Z,103.57
2017-11-29T07:37:07.941Z,119.95
2017-11-29T07:38:10.430Z,117.00
2017-11-29T07:39:12.921Z,122.77
2017-11-29T07:40:15.404Z,108.23
2017-11-29T07:41:17.876Z,105.13
2017-11-29T07:42:20.350Z,104.93
2017-11-29T07:43:22.835Z,87.07
2017-11-29T07:44:25.433Z,101.93
2017-11-29T07:45:27.915Z,88.80
2017-11-29T07:46:30.385Z,93.53
2017-11-29T07:47:32.912Z,101.47
2017-11-29T07:48:35.389Z,91.50
2017-11-29T07:49:37.915Z,83.77
2017-11-29T07:50:40.399Z,93.57
2017-11-29T07:51:42.895Z,93.37
2017-11-29T07:52:45.375Z,89.90
2017-11-29T07:53:47.882Z,82.47
2017-11-29T07:54:50.586Z,90.33
2017-11-29T07:55:53.065Z,84.90
2017-11-29T07:56:55.523Z,88.30
2017-11-29T07:57:58.007Z,73.87
2017-11-29T07:59:00.487Z,87.10
2017-11-29T08:00:02.970Z,85.73
2017-11-29T08:01:05.441Z,79.20
2017-11-29T08:02:07.988Z,76.53
2017-11-29T08:03:10.468Z,80.77
2017-11-29T08:04:12.955Z,87.83
2017-11-29T08:05:15.424Z,77.30
2017-11-29T08:06:17.915Z,85.43
2017-11-29T08:07:20.403Z,68.50
2017-11-29T08:08:22.869Z,77.07
2017-11-29T08:09:25.345Z,72.40
2017-11-29T08:10:27.846Z,72.83
2017-11-29T08:11:30.320Z,75.73
2017-11-29T08:12:32.811Z,73.37
2017-11-29T08:13:35.281Z,69.60
2017-11-29T08:14:37.752Z,77.30
2017-11-29T08:15:40.220Z,74.33
2017-11-29T08:16:42.713Z,63.67
2017-11-29T08:17:45.200Z,78.67
2017-11-29T08:18:47.689Z,67.77
2017-11-29T08:19:50.164Z,69.23
2017-11-29T08:20:52.659Z,65.70
2017-11-29T08:21:55.249Z,69.43
2017-11-29T08:22:57.738Z,65.47
2017-11-29T08:24:00.214Z,66.87
2017-11-29T08:25:02.702Z,67.47
2017-11-29T08:26:05.170Z,64.50
2017-11-29T08:27:07.650Z,61.33
2017-11-29T08:28:10.122Z,71.30
2017-11-29T08:29:12.604Z,61.17
2017-11-29T08:30:15.172Z,61.63
2017-11-29T08:31:17.650Z,65.43
2017-11-29T08:32:20.113Z,71.47
2017-11-29T08:33:22.594Z,67.17
2017-11-29T08:34:25.074Z,65.13
2017-11-29T08:35:27.578Z,60.60
2017-11-29T08:36:30.061Z,58.93
2017-11-29T08:37:32.549Z,57.93
2017-11-29T08:38:35.035Z,57.30
2017-11-29T08:39:37.499Z,52.27
2017-11-29T08:40:40.013Z,60.30
2017-11-29T08:41:42.508Z,59.47
2017-11-29T08:42:45.935Z,55.77
2017-11-29T08:43:48.423Z,54.53
2017-11-29T08:44:50.892Z,53.43
2017-11-29T08:45:53.352Z,56.20
2017-11-29T08:46:55.834Z,60.07
2017-11-29T08:47:58.326Z,56.43
2017-11-29T08:49:00.796Z,51.53
2017-11-29T08:50:03.270Z,53.93
2017-11-29T08:51:05.752Z,52.67
2017-11-29T08:52:08.220Z,56.67
2017-11-29T08:53:10.751Z,48.30
2017-11-29T08:54:13.234Z,50.90
2017-11-29T08:55:15.695Z,53.43
2017-11-29T08:56:18.174Z,51.43
2017-11-29T08:57:20.637Z,56.50
2017-11-29T08:58:23.109Z,49.90
2017-11-29T08:59:25.596Z,51.77
2017-11-29T09:00:28.065Z,38.37
2017-11-29T09:01:30.537Z,37.20
2017-11-29T09:02:33.022Z,33.57
2017-11-29T09:03:35.497Z,40.20
2017-11-29T09:04:37.969Z,41.47
2017-11-29T09:05:40.438Z,39.43
2017-11-29T09:06:42.905Z,36.83
2017-11-29T09:07:45.382Z,39.70
2017-11-29T09:08:47.889Z,38.47
2017-11-29T09:09:50.370Z,38.47
2017-11-29T09:10:52.863Z,33.50
2017-11-29T09:11:55.359Z,32.75
2017-11-29T09:12:57.828Z,35.57
2017-11-29T09:14:00.307Z,28.53
2017-11-29T09:15:02.805Z,31.20
2017-11-29T09:16:05.299Z,24.00
2017-11-29T09:17:07.813Z,29.80
2017-11-29T09:18:10.298Z,29.20
2017-11-29T09:19:12.772Z,36.63
2017-11-29T09:20:15.235Z,24.77
2017-11-29T09:21:17.716Z,27.10
2017-11-29T09:22:20.251Z,34.57
2017-11-29T09:23:22.742Z,26.10
2017-11-29T09:24:25.262Z,23.40
2017-11-29T09:25:27.850Z,36.17
2017-11-29T09:26:30.312Z,26.77
2017-11-29T09:27:32.831Z,32.00
2017-11-29T09:28:35.318Z,28.23
2017-11-29T09:29:37.823Z,23.33
2017-11-29T09:30:40.323Z,21.80
2017-11-29T09:31:43.123Z,21.60
2017-11-29T09:32:45.640Z,21.50
2017-11-29T09:33:48.133Z,25.70
2017-11-29T09:34:50.600Z,21.80
2017-11-29T09:35:53.058Z,26.27
2017-11-29T09:36:55.515Z,25.73
2017-11-29T09:37:58.031Z,39.10
2017-11-29T09:39:00.549Z,25.87
2017-11-29T09:40:03.022Z,19.37
2017-11-29T09:41:05.511Z,20.40
2017-11-29T09:42:07.987Z,24.43
2017-11-29T09:43:10.488Z,27.07
2017-11-29T09:44:12.956Z,21.13
2017-11-29T09:45:15.450Z,17.10
2017-11-29T09:46:17.930Z,23.40
2017-11-29T09:47:20.393Z,25.60
2017-11-29T09:48:22.881Z,30.83
2017-11-29T09:49:25.369Z,19.37
2017-11-29T09:50:27.858Z,21.77
2017-11-29T09:51:30.343Z,18.90
2017-11-29T09:52:32.817Z,21.40
2017-11-29T09:53:35.319Z,17.33
2017-11-29T09:54:37.798Z,18.40
2017-11-29T09:55:40.269Z,19.87
2017-11-29T09:56:42.773Z,24.83
2017-11-29T09:57:45.285Z,16.57
2017-11-29T09:58:47.875Z,17.27
2017-11-29T09:59:50.344Z,21.93
2017-11-29T10:00:52.812Z,18.40
2017-11-29T10:01:55.293Z,18.37
2017-11-29T10:02:57.777Z,20.67
2017-11-29T10:04:00.261Z,15.13
2017-11-29T10:05:02.734Z,17.50
2017-11-29T10:06:05.287Z,13.37
2017-11-29T10:07:07.801Z,18.63
2017-11-29T10:08:10.298Z,15.53
2017-11-29T10:09:12.798Z,19.50
2017-11-29T10:10:15.274Z,13.93
2017-11-29T10:11:17.776Z,15.10
2017-11-29T10:12:20.260Z,13.73
2017-11-29T10:13:22.771Z,16.30
2017-11-29T10:14:25.478Z,15.20
2017-11-29T10:15:27.958Z,16.03
2017-11-29T10:16:30.436Z,15.57
2017-11-29T10:17:32.909Z,14.43
2017-11-29T10:18:35.388Z,15.57
2017-11-29T10:19:37.896Z,12.30
2017-11-29T10:20:40.482Z,12.50
2017-11-29T10:21:43.024Z,13.43
2017-11-29T10:22:45.488Z,12.10
2017-11-29T10:23:48.004Z,14.33
2017-11-29T10:24:50.508Z,12.73
2017-11-29T10:25:53.005Z,15.90
2017-11-29T10:26:55.483Z,12.70
2017-11-29T10:27:57.970Z,13.57
2017-11-29T10:29:00.734Z,15.47
2017-11-29T10:30:03.380Z,13.87
2017-11-29T10:31:05.979Z,16.50
2017-11-29T10:32:08.461Z,14.53
2017-11-29T10:33:11.171Z,12.50
2017-11-29T10:34:13.658Z,11.70
2017-11-29T10:35:16.178Z,15.27
2017-11-29T10:36:18.662Z,14.00
2017-11-29T10:37:21.134Z,12.00
2017-11-29T10:38:23.614Z,14.30
2017-11-29T10:39:26.204Z,15.50
2017-11-29T10:40:28.706Z,13.87
2017-11-29T10:41:31.178Z,13.10
2017-11-29T10:42:33.645Z,11.80
2017-11-29T10:43:36.495Z,12.00
2017-11-29T10:44:38.994Z,12.73
2017-11-29T10:45:41.509Z,15.43
2017-11-29T10:46:43.981Z,11.87
2017-11-29T10:47:46.729Z,12.57
2017-11-29T10:48:49.204Z,8.23
2017-11-29T10:49:51.710Z,12.73
2017-11-29T10:50:54.197Z,13.13
2017-11-29T10:51:56.658Z,11.87
2017-11-29T10:52:59.112Z,9.53
2017-11-29T10:54:01.577Z,11.17
2017-11-29T10:55:04.062Z,10.67
2017-11-29T10:56:06.540Z,20.57
2017-11-29T10:57:09.004Z,11.97
2017-11-29T10:58:11.492Z,10.00
2017-11-29T10:59:13.986Z,13.77
2017-11-29T11:00:30.246Z,12.63
2017-11-29T11:01:32.772Z,12.03
2017-11-29T11:02:35.266Z,11.73
2017-11-29T11:03:37.736Z,14.20
2017-11-29T11:04:40.204Z,10.50
2017-11-29T11:05:42.677Z,8.67
2017-11-29T11:06:45.175Z,10.80
2017-11-29T11:07:47.640Z,9.80
2017-11-29T11:08:50.710Z,12.60
2017-11-29T11:09:53.203Z,9.00
2017-11-29T11:10:55.678Z,8.63
2017-11-29T11:11:58.199Z,11.03
2017-11-29T11:13:00.680Z,9.70
2017-11-29T11:14:03.155Z,8.73
2017-11-29T11:15:05.611Z,9.30
2017-11-29T11:16:08.077Z,8.70
2017-11-29T11:17:10.584Z,10.80
2017-11-29T11:18:13.061Z,9.20
2017-11-29T11:19:15.685Z,7.50
2017-11-29T11:20:18.143Z,7.03
2017-11-29T11:21:20.600Z,9.27
2017-11-29T11:22:23.086Z,9.00
2017-11-29T11:23:25.575Z,7.70
2017-11-29T11:24:28.046Z,9.00
2017-11-29T11:25:30.537Z,9.43
2017-11-29T11:26:33.000Z,9.13
2017-11-29T11:27:35.498Z,15.40
2017-11-29T11:28:37.985Z,16.60
2017-11-29T11:29:40.446Z,9.40
2017-11-29T11:30:42.917Z,18.23
2017-11-29T11:31:45.402Z,11.47
2017-11-29T11:32:47.915Z,11.93
2017-11-29T11:33:50.397Z,10.67
2017-11-29T11:34:52.860Z,20.67
2017-11-29T11:35:55.320Z,11.53
2017-11-29T11:36:57.818Z,12.77
2017-11-29T11:38:00.329Z,9.30
2017-11-29T11:39:02.813Z,11.30
2017-11-29T11:40:05.280Z,11.43
2017-11-29T11:41:07.766Z,15.60
2017-11-29T11:42:10.237Z,9.93
2017-11-29T11:43:12.751Z,10.90
2017-11-29T11:44:15.217Z,9.67
2017-11-29T11:45:17.689Z,10.67
2017-11-29T11:46:20.162Z,11.93
2017-11-29T11:47:22.647Z,9.33
2017-11-29T11:48:25.178Z,7.03
2017-11-29T11:49:27.641Z,12.27
2017-11-29T11:50:30.129Z,12.80
2017-11-29T11:51:32.609Z,10.83
2017-11-29T11:52:35.228Z,13.50
2017-11-29T11:53:37.728Z,7.77
2017-11-29T11:54:40.184Z,8.83
2017-11-29T11:55:42.658Z,10.80
2017-11-29T11:56:45.134Z,5.73
2017-11-29T11:57:47.607Z,9.23
2017-11-29T11:58:50.087Z,9.57
2017-11-29T11:59:52.559Z,7.63
2017-11-29T12:00:55.034Z,21.63
2017-11-29T12:01:57.518Z,5.80
2017-11-29T12:02:59.986Z,9.80
2017-11-29T12:04:02.484Z,10.73
2017-11-29T12:05:04.985Z,7.33
2017-11-29T12:06:07.462Z,15.60
2017-11-29T12:07:09.972Z,11.90
2017-11-29T12:08:12.433Z,9.20
2017-11-29T12:09:14.927Z,8.33
2017-11-29T12:10:17.393Z,12.47
2017-11-29T12:11:19.860Z,17.00
2017-11-29T12:12:22.316Z,10.17
2017-11-29T12:13:24.787Z,10.53
2017-11-29T12:14:27.287Z,12.23
2017-11-29T12:15:29.774Z,9.07
2017-11-29T12:16:32.232Z,9.33
2017-11-29T12:17:34.688Z,12.60
2017-11-29T12:18:37.167Z,7.53
2017-11-29T12:19:39.649Z,6.40
2017-11-29T12:20:42.132Z,8.93
2017-11-29T12:21:44.605Z,9.30
2017-11-29T12:22:47.086Z,11.13
2017-11-29T12:23:49.571Z,11.77
2017-11-29T12:24:52.055Z,10.30
2017-11-29T12:25:54.512Z,11.23
2017-11-29T12:26:56.976Z,9.17
2017-11-29T12:27:59.437Z,8.23
2017-11-29T12:29:01.908Z,15.70
2017-11-29T12:30:04.401Z,8.53
2017-11-29T12:31:06.864Z,7.03
2017-11-29T12:32:09.337Z,7.93
2017-11-29T12:33:11.801Z,11.07
2017-11-29T12:34:14.260Z,11.13
2017-11-29T12:35:16.760Z,10.10
2017-11-29T12:36:19.221Z,6.90
2017-11-29T12:37:21.675Z,6.70
2017-11-29T12:38:24.136Z,10.40
2017-11-29T12:39:26.596Z,10.10
2017-11-29T12:40:29.534Z,9.10
2017-11-29T12:41:32.016Z,7.47
2017-11-29T12:42:34.489Z,5.90
2017-11-29T12:43:36.953Z,6.20
2017-11-29T12:44:39.444Z,14.10
2017-11-29T12:45:41.956Z,7.30
2017-11-29T12:46:44.435Z,11.13
2017-11-29T12:47:46.948Z,8.07
2017-11-29T12:49:01.294Z,8.37
2017-11-29T12:50:15.667Z,10.23
2017-11-29T12:51:18.955Z,6.93
2017-11-29T12:52:21.445Z,7.50
2017-11-29T12:53:24.979Z,8.03
2017-11-29T12:54:27.500Z,8.07
2017-11-29T12:55:29.983Z,7.40
2017-11-29T12:56:32.458Z,7.90
2017-11-29T12:57:34.922Z,6.23
2017-11-29T12:58:37.392Z,7.80
2017-11-29T12:59:39.864Z,7.37
2017-11-29T13:00:42.346Z,11.50
2017-11-29T13:01:44.822Z,7.30
2017-11-29T13:02:47.314Z,6.57
2017-11-29T13:03:49.775Z,13.17
2017-11-29T13:04:52.271Z,7.47
2017-11-29T13:05:54.753Z,4.70
2017-11-29T13:06:57.231Z,9.97
2017-11-29T13:07:59.753Z,11.20
2017-11-29T13:09:02.234Z,11.83
2017-11-29T13:10:04.711Z,10.03
2017-11-29T13:11:07.178Z,9.60
2017-11-29T13:12:09.665Z,11.30
2017-11-29T13:13:12.127Z,5.47
2017-11-29T13:14:14.598Z,7.13
2017-11-29T13:15:17.074Z,8.00
2017-11-29T13:16:19.554Z,7.00
2017-11-29T13:17:22.026Z,7.00
2017-11-29T13:18:24.513Z,6.00
2017-11-29T13:19:26.969Z,9.17
2017-11-29T13:20:29.455Z,12.87
2017-11-29T13:21:31.917Z,5.93
2017-11-29T13:22:34.380Z,4.27
2017-11-29T13:23:36.848Z,5.83
2017-11-29T13:24:39.333Z,7.40
2017-11-29T13:25:41.812Z,4.97
2017-11-29T13:26:44.457Z,5.93
2017-11-29T13:27:46.928Z,10.10
2017-11-29T13:28:49.412Z,6.20
2017-11-29T13:29:51.877Z,4.63
2017-11-29T13:30:54.371Z,7.40
2017-11-29T13:31:56.842Z,5.90
2017-11-29T13:32:59.319Z,10.70